createdAt,value
2022-11-18T00:04:15.275Z,8.08
2022-11-18T00:09:17.015Z,8.07
2022-11-18T00:14:27.168Z,8.07
2022-11-18T00:19:31.186Z,8.06
2022-11-18T00:24:32.726Z,8.03
2022-11-18T00:29:34.314Z,7.99
2022-11-18T00:34:35.834Z,8.00
2022-11-18T00:39:37.342Z,7.97
2022-11-18T00:44:38.826Z,7.97
2022-11-18T00:49:40.348Z,7.97
2022-11-18T00:54:41.841Z,7.94
2022-11-18T00:59:43.349Z,7.90
2022-11-18T01:04:44.810Z,7.88
2022-11-18T01:09:46.306Z,7.85
2022-11-18T01:14:47.785Z,7.86
2022-11-18T01:19:49.281Z,7.84
2022-11-18T01:24:50.748Z,7.83
2022-11-18T01:29:52.200Z,7.80
2022-11-18T01:34:53.728Z,7.83
2022-11-18T01:39:55.222Z,7.81
2022-11-18T01:45:19.582Z,7.78
2022-11-18T01:50:22.382Z,7.80
2022-11-18T01:55:27.243Z,7.77
2022-11-18T02:00:28.806Z,7.76
2022-11-18T02:05:33.673Z,7.74
2022-11-18T02:10:35.224Z,7.71
2022-11-18T02:15:42.709Z,7.70
2022-11-18T02:20:47.347Z,7.68
2022-11-18T02:26:12.552Z,7.64
2022-11-18T02:31:27.335Z,7.57
2022-11-18T02:36:37.830Z,7.61
2022-11-18T02:41:42.349Z,7.62
2022-11-18T02:46:48.746Z,7.63
2022-11-18T02:51:51.543Z,7.64
2022-11-18T02:56:55.054Z,7.62
2022-11-18T03:01:56.811Z,7.64
2022-11-18T03:07:05.777Z,7.68
2022-11-18T03:12:19.372Z,7.67
2022-11-18T03:17:39.077Z,7.64
2022-11-18T03:22:55.064Z,7.60
2022-11-18T03:28:19.296Z,7.58
2022-11-18T03:33:28.887Z,7.53
2022-11-18T03:38:34.661Z,7.54
2022-11-18T03:43:48.331Z,7.52
2022-11-18T03:48:55.265Z,7.46
2022-11-18T03:54:08.578Z,7.48
2022-11-18T03:59:17.168Z,7.45
2022-11-18T04:04:19.444Z,7.42
2022-11-18T04:09:30.716Z,7.41
2022-11-18T04:14:35.544Z,7.41
2022-11-18T04:19:37.584Z,7.40
2022-11-18T04:24:39.788Z,7.40
2022-11-18T04:29:41.293Z,7.39
2022-11-18T04:34:42.798Z,7.39
2022-11-18T04:39:44.268Z,7.37
2022-11-18T04:44:45.769Z,7.39
2022-11-18T04:49:47.279Z,7.38
2022-11-18T04:54:48.878Z,7.37
2022-11-18T04:59:50.339Z,7.39
2022-11-18T05:04:51.846Z,7.37
2022-11-18T05:09:53.334Z,7.34
2022-11-18T05:14:54.785Z,7.34
2022-11-18T05:19:56.359Z,7.34
2022-11-18T05:24:57.951Z,7.32
2022-11-18T05:29:59.522Z,7.32
2022-11-18T05:35:01.043Z,7.32
2022-11-18T05:40:02.561Z,7.34
2022-11-18T05:45:04.347Z,7.35
2022-11-18T05:50:06.503Z,7.38
2022-11-18T05:55:09.456Z,7.40
2022-11-18T06:00:11.721Z,7.41
2022-11-18T06:05:14.469Z,7.40
2022-11-18T06:10:21.057Z,7.42
2022-11-18T06:15:31.005Z,7.44
2022-11-18T06:20:35.866Z,7.49
2022-11-18T06:25:41.311Z,7.51
2022-11-18T06:30:43.139Z,7.53
2022-11-18T06:35:44.746Z,7.57
2022-11-18T06:40:46.373Z,7.57
2022-11-18T06:46:09.523Z,7.61
2022-11-18T06:51:11.250Z,7.65
2022-11-18T06:56:15.319Z,7.68
2022-11-18T07:01:22.447Z,7.69
2022-11-18T07:06:26.582Z,7.72
2022-11-18T07:11:28.620Z,7.71
2022-11-18T07:16:30.150Z,7.72
2022-11-18T07:21:31.685Z,7.68
2022-11-18T07:26:33.870Z,7.66
2022-11-18T07:31:38.965Z,7.67
2022-11-18T07:36:40.495Z,7.70
2022-11-18T07:41:42.060Z,7.75
2022-11-18T07:46:43.713Z,7.81
2022-11-18T07:51:45.213Z,7.82
2022-11-18T07:56:46.721Z,7.86
2022-11-18T08:01:48.433Z,7.85
2022-11-18T08:06:49.919Z,7.86
2022-11-18T08:11:51.381Z,7.85
2022-11-18T08:16:52.900Z,7.89
2022-11-18T08:21:54.665Z,7.89
2022-11-18T08:26:56.192Z,7.97
2022-11-18T08:31:57.706Z,7.98
2022-11-18T08:36:59.275Z,8.01
2022-11-18T08:42:00.792Z,7.99
2022-11-18T08:47:02.897Z,8.00
2022-11-18T08:52:05.150Z,7.64
2022-11-18T08:57:08.358Z,7.63
2022-11-18T09:02:20.102Z,7.45
2022-11-18T09:07:22.126Z,7.36
2022-11-18T09:12:23.676Z,7.29
2022-11-18T09:17:25.174Z,7.46
2022-11-18T09:22:26.690Z,7.52
2022-11-18T09:27:28.186Z,7.56
2022-11-18T09:32:29.655Z,7.50
2022-11-18T09:37:31.169Z,7.55
2022-11-18T09:42:32.616Z,7.52
2022-11-18T09:47:35.441Z,7.70
2022-11-18T09:52:43.849Z,7.73
2022-11-18T09:57:51.040Z,7.68
2022-11-18T10:02:55.495Z,7.78
2022-11-18T10:08:14.052Z,7.86
2022-11-18T10:13:23.442Z,7.95
2022-11-18T10:24:24.111Z,8.13
2022-11-18T10:29:26.486Z,8.28
2022-11-18T10:34:28.032Z,8.27
2022-11-18T10:39:30.726Z,8.18
2022-11-18T10:44:34.047Z,8.17
2022-11-18T10:49:39.139Z,8.12
2022-11-18T10:54:41.443Z,8.14
2022-11-18T10:59:51.116Z,8.15
2022-11-18T11:04:53.740Z,7.97
2022-11-18T11:10:10.369Z,8.01
2022-11-18T11:15:18.139Z,8.12
2022-11-18T11:20:25.387Z,8.17
2022-11-18T11:31:31.226Z,8.01
2022-11-18T11:36:38.373Z,8.19
2022-11-18T11:42:15.220Z,8.30
2022-11-18T11:47:50.429Z,8.46
2022-11-18T11:53:00.540Z,8.53
2022-11-18T11:58:17.170Z,8.58
2022-11-18T12:03:54.280Z,8.55
2022-11-18T12:09:07.979Z,8.68
2022-11-18T12:14:17.015Z,8.65
2022-11-18T12:19:21.241Z,8.57
2022-11-18T12:24:27.342Z,8.67
2022-11-18T12:29:50.516Z,8.65
2022-11-18T12:35:23.203Z,8.75
2022-11-18T12:40:42.432Z,8.84
2022-11-18T12:45:45.877Z,8.92
2022-11-18T12:50:49.725Z,8.92
2022-11-18T12:55:51.454Z,8.88
2022-11-18T13:01:08.096Z,8.90
2022-11-18T13:06:25.357Z,8.59
2022-11-18T13:11:44.810Z,8.68
2022-11-18T13:17:04.601Z,8.87
2022-11-18T13:22:35.941Z,9.01
2022-11-18T13:27:52.561Z,9.09
2022-11-18T13:32:58.863Z,9.01
2022-11-18T13:38:03.514Z,9.00
2022-11-18T13:43:05.056Z,8.76
2022-11-18T13:48:12.951Z,8.66
2022-11-18T13:53:31.465Z,8.62
2022-11-18T13:59:16.436Z,8.59
2022-11-18T14:04:22.188Z,8.63
2022-11-18T14:09:31.131Z,8.53
2022-11-18T14:14:35.746Z,8.21
2022-11-18T14:19:38.353Z,7.97
2022-11-18T14:24:40.943Z,7.71
2022-11-18T14:29:49.790Z,7.76
2022-11-18T14:35:00.891Z,7.69
2022-11-18T14:40:02.409Z,7.33
2022-11-18T14:45:04.059Z,6.81
2022-11-18T14:50:12.588Z,6.95
2022-11-18T14:55:14.052Z,6.92
2022-11-18T15:00:16.346Z,6.87
2022-11-18T15:05:17.898Z,6.57
2022-11-18T15:10:19.414Z,6.66
2022-11-18T15:15:21.345Z,6.66
2022-11-18T15:20:23.337Z,6.50
2022-11-18T15:25:24.794Z,6.58
2022-11-18T15:30:26.506Z,6.53
2022-11-18T15:35:27.999Z,6.46
2022-11-18T15:40:29.532Z,6.33
2022-11-18T15:45:30.985Z,6.13
2022-11-18T15:50:32.500Z,6.23
2022-11-18T15:55:34.021Z,6.32
2022-11-18T16:00:35.469Z,6.28
2022-11-18T16:05:36.913Z,6.28
2022-11-18T16:10:57.042Z,6.08
2022-11-18T16:15:58.516Z,5.87
2022-11-18T16:21:00.526Z,5.75
2022-11-18T16:26:02.051Z,6.03
2022-11-18T16:31:22.172Z,5.85
2022-11-18T16:36:27.210Z,5.76
2022-11-18T16:41:31.456Z,5.77
2022-11-18T16:46:35.203Z,5.58
2022-11-18T16:51:36.987Z,5.45
2022-11-18T16:56:40.428Z,5.50
2022-11-18T17:01:42.105Z,5.49
2022-11-18T17:06:44.082Z,5.27
2022-11-18T17:11:45.567Z,5.31
2022-11-18T17:16:47.423Z,5.04
2022-11-18T17:21:50.592Z,5.01
2022-11-18T17:26:52.500Z,5.09
2022-11-18T17:31:54.495Z,5.28
2022-11-18T17:36:58.275Z,5.15
2022-11-18T17:42:15.233Z,5.07
2022-11-18T17:47:17.180Z,4.82
2022-11-18T17:52:19.326Z,4.77
2022-11-18T17:57:20.851Z,4.89
2022-11-18T18:02:22.305Z,4.89
2022-11-18T18:07:23.919Z,4.78
2022-11-18T18:12:44.212Z,4.55
2022-11-18T18:17:49.531Z,4.45
2022-11-18T18:22:51.154Z,4.73
2022-11-18T18:27:52.709Z,4.74
2022-11-18T18:32:54.258Z,4.70
2022-11-18T18:37:55.937Z,4.63
2022-11-18T18:42:57.440Z,4.56
2022-11-18T18:48:03.698Z,4.50
2022-11-18T18:53:05.145Z,4.48
2022-11-18T18:58:06.672Z,4.37
2022-11-18T19:03:08.213Z,4.36
2022-11-18T19:08:10.066Z,4.26
2022-11-18T19:13:11.569Z,4.23
2022-11-18T19:18:13.144Z,4.21
2022-11-18T19:23:14.825Z,4.16
2022-11-18T19:28:16.311Z,4.12
2022-11-18T19:33:17.830Z,4.03
2022-11-18T19:38:19.400Z,3.92
2022-11-18T19:43:20.981Z,3.84
2022-11-18T19:48:23.444Z,3.75
2022-11-18T19:53:34.964Z,3.74
2022-11-18T19:58:39.846Z,3.75
2022-11-18T20:03:52.861Z,3.74
2022-11-18T20:08:55.810Z,3.64
2022-11-18T20:13:57.295Z,3.63
2022-11-18T20:19:05.187Z,2.98
2022-11-18T20:24:16.017Z,2.76
2022-11-18T20:29:17.805Z,2.62
2022-11-18T20:34:19.605Z,2.71
2022-11-18T20:39:21.949Z,2.71
2022-11-18T20:44:23.763Z,2.58
2022-11-18T20:49:25.236Z,2.59
2022-11-18T20:54:26.704Z,2.50
2022-11-18T20:59:28.174Z,2.53
2022-11-18T21:04:29.770Z,2.47
2022-11-18T21:09:32.871Z,2.20
2022-11-18T21:14:34.436Z,2.26
2022-11-18T21:19:35.968Z,2.43
2022-11-18T21:24:37.872Z,2.48
2022-11-18T21:29:39.378Z,2.25
2022-11-18T21:34:40.890Z,2.28
2022-11-18T21:39:42.482Z,2.28
2022-11-18T21:44:44.006Z,2.26
2022-11-18T21:49:45.544Z,2.11
2022-11-18T21:54:47.030Z,1.97
2022-11-18T21:59:48.469Z,2.09
2022-11-18T22:04:52.510Z,2.18
2022-11-18T22:09:55.220Z,2.04
2022-11-18T22:14:56.726Z,1.92
2022-11-18T22:19:58.275Z,1.99
2022-11-18T22:24:59.781Z,2.11
2022-11-18T22:30:01.500Z,2.01
2022-11-18T22:35:03.200Z,2.10
2022-11-18T22:40:05.137Z,2.07
2022-11-18T22:45:07.409Z,2.10
2022-11-18T22:50:10.619Z,2.00
2022-11-18T22:55:12.079Z,1.88
2022-11-18T23:00:14.124Z,1.92
2022-11-18T23:05:15.667Z,2.00
2022-11-18T23:10:17.136Z,2.09
2022-11-18T23:15:18.669Z,2.02
2022-11-18T23:20:20.115Z,2.01
2022-11-18T23:25:21.597Z,2.14
2022-11-18T23:30:23.112Z,2.10
2022-11-18T23:35:24.735Z,1.94
2022-11-18T23:40:26.214Z,1.84
2022-11-18T23:45:27.733Z,2.01
2022-11-18T23:50:29.250Z,2.09
2022-11-18T23:55:30.712Z,2.02
